Olias del Rey, Spain
Current Conditions -  °F | °C
As of 1:00 PM on Friday 31 Oct 2014 (Local Time) from LEGT Reporting Station
Clear Clear  
Wind Chill: 70°   Ceiling: Unl
Heat Index: 70°   Visibility: 6mi
Dew Point: 50°   Wind: 6mph
Humidity: 49%   Direction: 100°E
Pressure: 30.24"   Gusts: NA
Location:  39.94°N, 3.99°W
Report Text: LEGT 311200Z 10005KT CAVOK 21/10 Q1024
Loading
Personal Weather Stations






























Interactive Weather Map
Tropical Storm Tracking
New forecast layout! Learn more

10-Day Weather Forecast

Advertisements
Track Severe Weather on mobile